sensor_id;sensor_type;location;lat;lon;timestamp;temperature;humidity
68804;SHT31;55787;52.678;13.314;2023-02-27T00:02:22;-4.42;92.81
68804;SHT31;55787;52.678;13.314;2023-02-27T00:04:49;-4.46;92.99
68804;SHT31;55787;52.678;13.314;2023-02-27T00:07:16;-4.45;93.01
68804;SHT31;55787;52.678;13.314;2023-02-27T00:09:43;-4.40;94.03
68804;SHT31;55787;52.678;13.314;2023-02-27T00:12:09;-4.35;94.76
68804;SHT31;55787;52.678;13.314;2023-02-27T00:14:37;-4.35;94.65
68804;SHT31;55787;52.678;13.314;2023-02-27T00:17:04;-4.34;94.93
68804;SHT31;55787;52.678;13.314;2023-02-27T00:19:30;-4.38;94.51
68804;SHT31;55787;52.678;13.314;2023-02-27T00:21:57;-4.42;95.03
68804;SHT31;55787;52.678;13.314;2023-02-27T00:24:23;-4.44;95.12
68804;SHT31;55787;52.678;13.314;2023-02-27T00:26:50;-4.44;94.95
68804;SHT31;55787;52.678;13.314;2023-02-27T00:29:17;-4.46;94.47
68804;SHT31;55787;52.678;13.314;2023-02-27T00:31:43;-4.49;94.51
68804;SHT31;55787;52.678;13.314;2023-02-27T00:34:10;-4.55;94.45
68804;SHT31;55787;52.678;13.314;2023-02-27T00:36:37;-4.56;94.58
68804;SHT31;55787;52.678;13.314;2023-02-27T00:39:03;-4.62;94.67
68804;SHT31;55787;52.678;13.314;2023-02-27T00:41:30;-4.64;94.83
68804;SHT31;55787;52.678;13.314;2023-02-27T00:43:56;-4.64;94.68
68804;SHT31;55787;52.678;13.314;2023-02-27T00:46:23;-4.72;94.65
68804;SHT31;55787;52.678;13.314;2023-02-27T00:48:50;-4.73;94.74
68804;SHT31;55787;52.678;13.314;2023-02-27T00:51:17;-4.75;94.86
68804;SHT31;55787;52.678;13.314;2023-02-27T00:53:45;-4.75;94.86
68804;SHT31;55787;52.678;13.314;2023-02-27T00:56:12;-4.77;94.93
68804;SHT31;55787;52.678;13.314;2023-02-27T00:58:39;-4.79;95.10
68804;SHT31;55787;52.678;13.314;2023-02-27T01:01:06;-4.79;95.50
68804;SHT31;55787;52.678;13.314;2023-02-27T01:03:32;-4.77;95.45
68804;SHT31;55787;52.678;13.314;2023-02-27T01:05:59;-4.75;95.72
68804;SHT31;55787;52.678;13.314;2023-02-27T01:08:25;-4.77;95.55
68804;SHT31;55787;52.678;13.314;2023-02-27T01:10:54;-4.82;95.47
68804;SHT31;55787;52.678;13.314;2023-02-27T01:13:21;-4.80;95.66
68804;SHT31;55787;52.678;13.314;2023-02-27T01:15:48;-4.82;95.61
68804;SHT31;55787;52.678;13.314;2023-02-27T01:18:17;-4.82;95.65
68804;SHT31;55787;52.678;13.314;2023-02-27T01:20:44;-4.82;95.82
68804;SHT31;55787;52.678;13.314;2023-02-27T01:23:11;-4.83;95.74
68804;SHT31;55787;52.678;13.314;2023-02-27T01:25:38;-4.82;96.18
68804;SHT31;55787;52.678;13.314;2023-02-27T01:28:04;-4.77;96.49
68804;SHT31;55787;52.678;13.314;2023-02-27T01:30:31;-4.75;96.35
68804;SHT31;55787;52.678;13.314;2023-02-27T01:32:58;-4.72;96.93
68804;SHT31;55787;52.678;13.314;2023-02-27T01:35:25;-4.72;96.29
68804;SHT31;55787;52.678;13.314;2023-02-27T01:37:52;-4.68;96.90
68804;SHT31;55787;52.678;13.314;2023-02-27T01:40:19;-4.65;96.95
68804;SHT31;55787;52.678;13.314;2023-02-27T01:42:45;-4.64;96.58
68804;SHT31;55787;52.678;13.314;2023-02-27T01:45:31;-4.64;96.62
68804;SHT31;55787;52.678;13.314;2023-02-27T01:48:08;-4.62;96.39
68804;SHT31;55787;52.678;13.314;2023-02-27T01:50:39;-4.62;96.63
68804;SHT31;55787;52.678;13.314;2023-02-27T01:53:07;-4.64;96.92
68804;SHT31;55787;52.678;13.314;2023-02-27T01:55:37;-4.58;97.08
68804;SHT31;55787;52.678;13.314;2023-02-27T01:58:05;-4.55;96.98
68804;SHT31;55787;52.678;13.314;2023-02-27T02:00:33;-4.49;97.04
68804;SHT31;55787;52.678;13.314;2023-02-27T02:05:34;-4.24;96.93
68804;SHT31;55787;52.678;13.314;2023-02-27T02:08:01;-4.19;96.86
68804;SHT31;55787;52.678;13.314;2023-02-27T02:10:29;-4.17;96.78
68804;SHT31;55787;52.678;13.314;2023-02-27T02:12:57;-4.08;96.62
68804;SHT31;55787;52.678;13.314;2023-02-27T02:15:31;-4.05;96.39
68804;SHT31;55787;52.678;13.314;2023-02-27T02:29:15;-3.80;95.05
68804;SHT31;55787;52.678;13.314;2023-02-27T02:35:12;-3.93;95.48
68804;SHT31;55787;52.678;13.314;2023-02-27T02:40:27;-4.01;95.25
68804;SHT31;55787;52.678;13.314;2023-02-27T02:43:13;-4.10;95.19
68804;SHT31;55787;52.678;13.314;2023-02-27T02:45:59;-4.18;95.31
68804;SHT31;55787;52.678;13.314;2023-02-27T02:48:38;-4.27;95.31
68804;SHT31;55787;52.678;13.314;2023-02-27T02:53:50;-4.34;95.83
68804;SHT31;55787;52.678;13.314;2023-02-27T02:56:23;-4.35;96.05
68804;SHT31;55787;52.678;13.314;2023-02-27T02:59:35;-4.36;96.08
68804;SHT31;55787;52.678;13.314;2023-02-27T03:01:45;-4.42;95.69
68804;SHT31;55787;52.678;13.314;2023-02-27T03:04:40;-4.48;95.75
68804;SHT31;55787;52.678;13.314;2023-02-27T03:07:29;-4.56;95.71
68804;SHT31;55787;52.678;13.314;2023-02-27T03:10:03;-4.64;95.88
68804;SHT31;55787;52.678;13.314;2023-02-27T03:12:31;-4.66;95.89
68804;SHT31;55787;52.678;13.314;2023-02-27T03:15:07;-4.68;95.87
68804;SHT31;55787;52.678;13.314;2023-02-27T03:20:38;-4.75;95.99
68804;SHT31;55787;52.678;13.314;2023-02-27T03:23:09;-4.79;95.88
68804;SHT31;55787;52.678;13.314;2023-02-27T03:25:38;-4.85;95.87
68804;SHT31;55787;52.678;13.314;2023-02-27T03:28:08;-4.89;95.90
68804;SHT31;55787;52.678;13.314;2023-02-27T03:30:44;-4.93;95.97
68804;SHT31;55787;52.678;13.314;2023-02-27T03:42:17;-5.06;96.03
68804;SHT31;55787;52.678;13.314;2023-02-27T03:47:50;-5.16;96.14
68804;SHT31;55787;52.678;13.314;2023-02-27T03:50:17;-5.16;96.24
68804;SHT31;55787;52.678;13.314;2023-02-27T03:52:44;-5.20;96.25
68804;SHT31;55787;52.678;13.314;2023-02-27T03:55:15;-5.20;96.29
68804;SHT31;55787;52.678;13.314;2023-02-27T03:57:44;-5.27;96.45
68804;SHT31;55787;52.678;13.314;2023-02-27T04:00:16;-5.28;96.58
68804;SHT31;55787;52.678;13.314;2023-02-27T04:02:44;-5.30;96.61
68804;SHT31;55787;52.678;13.314;2023-02-27T04:05:12;-5.28;96.67
68804;SHT31;55787;52.678;13.314;2023-02-27T04:10:55;-5.32;96.73
68804;SHT31;55787;52.678;13.314;2023-02-27T04:26:47;-4.90;97.19
68804;SHT31;55787;52.678;13.314;2023-02-27T04:29:39;-4.82;97.26
68804;SHT31;55787;52.678;13.314;2023-02-27T04:33:06;-4.71;97.15
68804;SHT31;55787;52.678;13.314;2023-02-27T04:35:28;-4.68;96.90
68804;SHT31;55787;52.678;13.314;2023-02-27T04:38:21;-4.73;96.50
68804;SHT31;55787;52.678;13.314;2023-02-27T04:43:22;-4.89;96.40
68804;SHT31;55787;52.678;13.314;2023-02-27T04:45:50;-4.97;96.41
68804;SHT31;55787;52.678;13.314;2023-02-27T04:48:24;-5.01;96.44
68804;SHT31;55787;52.678;13.314;2023-02-27T04:51:09;-5.07;96.56
68804;SHT31;55787;52.678;13.314;2023-02-27T04:53:58;-5.16;96.61
68804;SHT31;55787;52.678;13.314;2023-02-27T04:56:33;-5.23;96.61
68804;SHT31;55787;52.678;13.314;2023-02-27T04:59:31;-5.26;96.72
68804;SHT31;55787;52.678;13.314;2023-02-27T05:02:02;-5.30;96.90
68804;SHT31;55787;52.678;13.314;2023-02-27T05:04:35;-5.32;96.88
68804;SHT31;55787;52.678;13.314;2023-02-27T05:07:04;-5.37;96.93
68804;SHT31;55787;52.678;13.314;2023-02-27T05:09:52;-5.38;96.96
68804;SHT31;55787;52.678;13.314;2023-02-27T05:12:24;-5.41;97.04
68804;SHT31;55787;52.678;13.314;2023-02-27T05:15:03;-5.45;97.06
68804;SHT31;55787;52.678;13.314;2023-02-27T05:17:36;-5.45;97.27
68804;SHT31;55787;52.678;13.314;2023-02-27T05:20:04;-5.50;97.38
68804;SHT31;55787;52.678;13.314;2023-02-27T05:25:12;-5.52;97.55
68804;SHT31;55787;52.678;13.314;2023-02-27T05:27:53;-5.51;97.58
68804;SHT31;55787;52.678;13.314;2023-02-27T05:30:34;-5.55;97.49
68804;SHT31;55787;52.678;13.314;2023-02-27T05:33:14;-5.57;98.64
68804;SHT31;55787;52.678;13.314;2023-02-27T05:36:14;-5.57;98.44
68804;SHT31;55787;52.678;13.314;2023-02-27T05:38:46;-5.54;98.60
68804;SHT31;55787;52.678;13.314;2023-02-27T05:41:23;-5.52;98.27
68804;SHT31;55787;52.678;13.314;2023-02-27T05:44:02;-5.61;98.21
68804;SHT31;55787;52.678;13.314;2023-02-27T05:46:34;-5.58;98.25
68804;SHT31;55787;52.678;13.314;2023-02-27T05:49:16;-5.62;98.23
68804;SHT31;55787;52.678;13.314;2023-02-27T05:51:46;-5.65;98.34
68804;SHT31;55787;52.678;13.314;2023-02-27T05:57:13;-5.61;98.50
68804;SHT31;55787;52.678;13.314;2023-02-27T05:59:47;-5.59;98.33
68804;SHT31;55787;52.678;13.314;2023-02-27T06:02:16;-5.61;98.28
68804;SHT31;55787;52.678;13.314;2023-02-27T06:04:42;-5.62;98.16
68804;SHT31;55787;52.678;13.314;2023-02-27T06:07:11;-5.65;98.15
68804;SHT31;55787;52.678;13.314;2023-02-27T06:09:40;-5.64;98.16
68804;SHT31;55787;52.678;13.314;2023-02-27T06:12:07;-5.65;97.99
68804;SHT31;55787;52.678;13.314;2023-02-27T06:14:34;-5.67;98.16
68804;SHT31;55787;52.678;13.314;2023-02-27T06:17:00;-5.67;98.20
68804;SHT31;55787;52.678;13.314;2023-02-27T06:19:27;-5.61;98.23
68804;SHT31;55787;52.678;13.314;2023-02-27T06:21:54;-5.61;98.24
68804;SHT31;55787;52.678;13.314;2023-02-27T06:24:20;-5.58;98.29
68804;SHT31;55787;52.678;13.314;2023-02-27T06:26:47;-5.50;98.60
68804;SHT31;55787;52.678;13.314;2023-02-27T06:29:14;-5.41;98.39
68804;SHT31;55787;52.678;13.314;2023-02-27T06:31:40;-5.37;98.35
68804;SHT31;55787;52.678;13.314;2023-02-27T06:34:07;-5.27;98.31
68804;SHT31;55787;52.678;13.314;2023-02-27T06:36:34;-5.18;98.34
68804;SHT31;55787;52.678;13.314;2023-02-27T06:39:00;-5.07;98.28
68804;SHT31;55787;52.678;13.314;2023-02-27T06:41:27;-4.95;98.12
68804;SHT31;55787;52.678;13.314;2023-02-27T06:43:54;-4.82;97.77
68804;SHT31;55787;52.678;13.314;2023-02-27T06:46:22;-4.69;97.79
68804;SHT31;55787;52.678;13.314;2023-02-27T06:48:49;-4.48;98.21
68804;SHT31;55787;52.678;13.314;2023-02-27T06:51:16;-4.27;98.13
68804;SHT31;55787;52.678;13.314;2023-02-27T06:53:42;-4.10;97.92
68804;SHT31;55787;52.678;13.314;2023-02-27T06:56:09;-3.91;97.68
68804;SHT31;55787;52.678;13.314;2023-02-27T06:58:36;-3.79;97.48
68804;SHT31;55787;52.678;13.314;2023-02-27T07:01:03;-3.66;97.36
68804;SHT31;55787;52.678;13.314;2023-02-27T07:03:29;-3.60;97.15
68804;SHT31;55787;52.678;13.314;2023-02-27T07:05:56;-3.53;97.12
68804;SHT31;55787;52.678;13.314;2023-02-27T07:08:24;-3.48;97.14
68804;SHT31;55787;52.678;13.314;2023-02-27T07:10:50;-3.39;97.04
68804;SHT31;55787;52.678;13.314;2023-02-27T07:13:17;-3.31;96.78
68804;SHT31;55787;52.678;13.314;2023-02-27T07:15:45;-3.19;96.99
68804;SHT31;55787;52.678;13.314;2023-02-27T07:18:12;-3.07;96.58
68804;SHT31;55787;52.678;13.314;2023-02-27T07:20:38;-2.94;96.39
68804;SHT31;55787;52.678;13.314;2023-02-27T07:23:06;-2.84;95.98
68804;SHT31;55787;52.678;13.314;2023-02-27T07:25:32;-2.70;96.09
68804;SHT31;55787;52.678;13.314;2023-02-27T07:27:59;-2.62;95.89
68804;SHT31;55787;52.678;13.314;2023-02-27T07:30:27;-2.52;95.53
68804;SHT31;55787;52.678;13.314;2023-02-27T07:32:56;-2.41;95.23
68804;SHT31;55787;52.678;13.314;2023-02-27T07:35:23;-2.35;94.99
68804;SHT31;55787;52.678;13.314;2023-02-27T07:37:50;-2.25;95.02
68804;SHT31;55787;52.678;13.314;2023-02-27T07:40:17;-2.18;94.69
68804;SHT31;55787;52.678;13.314;2023-02-27T07:42:46;-2.04;94.43
68804;SHT31;55787;52.678;13.314;2023-02-27T07:45:13;-1.94;94.57
68804;SHT31;55787;52.678;13.314;2023-02-27T07:47:42;-1.85;94.30
68804;SHT31;55787;52.678;13.314;2023-02-27T07:50:09;-1.80;94.14
68804;SHT31;55787;52.678;13.314;2023-02-27T07:52:40;-1.68;93.99
68804;SHT31;55787;52.678;13.314;2023-02-27T07:55:08;-1.56;93.73
68804;SHT31;55787;52.678;13.314;2023-02-27T07:57:35;-1.40;93.30
68804;SHT31;55787;52.678;13.314;2023-02-27T08:00:06;-1.28;92.73
68804;SHT31;55787;52.678;13.314;2023-02-27T08:02:34;-1.23;92.69
68804;SHT31;55787;52.678;13.314;2023-02-27T08:05:01;-1.17;92.63
68804;SHT31;55787;52.678;13.314;2023-02-27T08:07:28;-1.03;92.30
68804;SHT31;55787;52.678;13.314;2023-02-27T08:09:54;-0.89;91.75
68804;SHT31;55787;52.678;13.314;2023-02-27T08:12:21;-0.78;91.29
68804;SHT31;55787;52.678;13.314;2023-02-27T08:14:48;-0.70;90.89
68804;SHT31;55787;52.678;13.314;2023-02-27T08:17:14;-0.60;90.71
68804;SHT31;55787;52.678;13.314;2023-02-27T08:19:41;-0.51;90.70
68804;SHT31;55787;52.678;13.314;2023-02-27T08:22:08;-0.36;90.20
68804;SHT31;55787;52.678;13.314;2023-02-27T08:24:34;-0.24;89.38
68804;SHT31;55787;52.678;13.314;2023-02-27T08:27:01;-0.23;89.31
68804;SHT31;55787;52.678;13.314;2023-02-27T08:29:27;-0.21;89.84
68804;SHT31;55787;52.678;13.314;2023-02-27T08:31:56;-0.20;89.29
68804;SHT31;55787;52.678;13.314;2023-02-27T08:34:23;-0.12;89.62
68804;SHT31;55787;52.678;13.314;2023-02-27T08:36:51;0.01;89.41
68804;SHT31;55787;52.678;13.314;2023-02-27T08:39:18;0.08;88.96
68804;SHT31;55787;52.678;13.314;2023-02-27T08:41:45;0.19;88.84
68804;SHT31;55787;52.678;13.314;2023-02-27T08:44:12;0.37;88.11
68804;SHT31;55787;52.678;13.314;2023-02-27T08:46:39;0.46;88.28
68804;SHT31;55787;52.678;13.314;2023-02-27T08:49:05;0.56;87.79
68804;SHT31;55787;52.678;13.314;2023-02-27T08:51:32;0.68;87.74
68804;SHT31;55787;52.678;13.314;2023-02-27T08:53:58;0.80;86.96
68804;SHT31;55787;52.678;13.314;2023-02-27T08:56:26;1.03;86.72
68804;SHT31;55787;52.678;13.314;2023-02-27T08:58:54;1.28;86.09
68804;SHT31;55787;52.678;13.314;2023-02-27T09:01:20;1.59;84.36
68804;SHT31;55787;52.678;13.314;2023-02-27T09:03:47;1.78;83.35
68804;SHT31;55787;52.678;13.314;2023-02-27T09:06:15;2.03;83.61
68804;SHT31;55787;52.678;13.314;2023-02-27T09:08:41;2.20;82.49
68804;SHT31;55787;52.678;13.314;2023-02-27T09:11:08;2.42;82.23
68804;SHT31;55787;52.678;13.314;2023-02-27T09:13:34;2.55;81.87
68804;SHT31;55787;52.678;13.314;2023-02-27T09:16:01;2.81;80.71
68804;SHT31;55787;52.678;13.314;2023-02-27T09:18:28;2.75;80.52
68804;SHT31;55787;52.678;13.314;2023-02-27T09:20:54;2.82;79.96
68804;SHT31;55787;52.678;13.314;2023-02-27T09:23:22;2.81;80.35
68804;SHT31;55787;52.678;13.314;2023-02-27T09:25:48;2.88;80.03
68804;SHT31;55787;52.678;13.314;2023-02-27T09:28:15;3.19;79.49
68804;SHT31;55787;52.678;13.314;2023-02-27T09:30:42;3.32;77.96
68804;SHT31;55787;52.678;13.314;2023-02-27T09:33:08;3.24;78.17
68804;SHT31;55787;52.678;13.314;2023-02-27T09:35:35;3.26;78.65
68804;SHT31;55787;52.678;13.314;2023-02-27T09:38:02;3.43;77.75
68804;SHT31;55787;52.678;13.314;2023-02-27T09:40:31;3.41;76.50
68804;SHT31;55787;52.678;13.314;2023-02-27T09:43:01;3.47;76.65
68804;SHT31;55787;52.678;13.314;2023-02-27T09:45:30;3.54;77.27
68804;SHT31;55787;52.678;13.314;2023-02-27T09:50:47;3.70;76.50
68804;SHT31;55787;52.678;13.314;2023-02-27T09:53:24;3.71;76.50
68804;SHT31;55787;52.678;13.314;2023-02-27T09:56:01;3.70;76.17
68804;SHT31;55787;52.678;13.314;2023-02-27T09:58:37;3.66;75.56
68804;SHT31;55787;52.678;13.314;2023-02-27T10:01:20;3.77;75.70
68804;SHT31;55787;52.678;13.314;2023-02-27T10:06:25;3.85;74.34
68804;SHT31;55787;52.678;13.314;2023-02-27T10:09:00;3.88;73.47
68804;SHT31;55787;52.678;13.314;2023-02-27T10:19:49;4.60;71.11
68804;SHT31;55787;52.678;13.314;2023-02-27T10:22:22;4.74;71.03
68804;SHT31;55787;52.678;13.314;2023-02-27T10:24:57;5.02;70.84
68804;SHT31;55787;52.678;13.314;2023-02-27T10:27:25;5.02;71.83
68804;SHT31;55787;52.678;13.314;2023-02-27T10:29:54;5.22;69.86
68804;SHT31;55787;52.678;13.314;2023-02-27T10:32:26;5.27;69.17
68804;SHT31;55787;52.678;13.314;2023-02-27T10:35:25;5.39;70.58
68804;SHT31;55787;52.678;13.314;2023-02-27T10:38:01;5.72;68.39
68804;SHT31;55787;52.678;13.314;2023-02-27T10:40:30;5.86;65.74
68804;SHT31;55787;52.678;13.314;2023-02-27T10:42:59;5.97;66.92
68804;SHT31;55787;52.678;13.314;2023-02-27T10:45:26;6.31;66.63
68804;SHT31;55787;52.678;13.314;2023-02-27T10:47:53;6.48;65.94
68804;SHT31;55787;52.678;13.314;2023-02-27T10:50:29;6.62;65.48
68804;SHT31;55787;52.678;13.314;2023-02-27T10:53:02;6.59;64.96
68804;SHT31;55787;52.678;13.314;2023-02-27T10:55:34;7.04;64.89
68804;SHT31;55787;52.678;13.314;2023-02-27T10:58:02;7.35;64.69
68804;SHT31;55787;52.678;13.314;2023-02-27T11:00:42;7.35;61.84
68804;SHT31;55787;52.678;13.314;2023-02-27T11:03:40;7.13;62.24
68804;SHT31;55787;52.678;13.314;2023-02-27T11:06:19;7.38;61.21
68804;SHT31;55787;52.678;13.314;2023-02-27T11:11:36;7.20;61.18
68804;SHT31;55787;52.678;13.314;2023-02-27T11:16:50;7.38;60.45
68804;SHT31;55787;52.678;13.314;2023-02-27T11:19:33;7.51;61.02
68804;SHT31;55787;52.678;13.314;2023-02-27T11:22:18;7.37;62.53
68804;SHT31;55787;52.678;13.314;2023-02-27T11:24:46;7.35;60.98
68804;SHT31;55787;52.678;13.314;2023-02-27T11:27:21;7.35;61.26
68804;SHT31;55787;52.678;13.314;2023-02-27T11:30:04;7.10;60.52
68804;SHT31;55787;52.678;13.314;2023-02-27T11:35:01;6.78;60.23
68804;SHT31;55787;52.678;13.314;2023-02-27T11:37:33;6.71;61.79
68804;SHT31;55787;52.678;13.314;2023-02-27T11:42:49;6.48;58.84
68804;SHT31;55787;52.678;13.314;2023-02-27T11:48:17;7.48;53.84
68804;SHT31;55787;52.678;13.314;2023-02-27T11:51:15;7.03;55.43
68804;SHT31;55787;52.678;13.314;2023-02-27T11:53:55;8.50;53.67
68804;SHT31;55787;52.678;13.314;2023-02-27T11:56:45;9.01;50.96
68804;SHT31;55787;52.678;13.314;2023-02-27T11:59:31;8.37;51.72
68804;SHT31;55787;52.678;13.314;2023-02-27T12:02:12;7.79;52.61
68804;SHT31;55787;52.678;13.314;2023-02-27T12:04:51;6.97;55.94
68804;SHT31;55787;52.678;13.314;2023-02-27T12:10:05;6.52;58.63
68804;SHT31;55787;52.678;13.314;2023-02-27T12:15:44;6.24;58.03
68804;SHT31;55787;52.678;13.314;2023-02-27T12:18:23;6.13;56.17
68804;SHT31;55787;52.678;13.314;2023-02-27T12:23:37;6.28;56.49
68804;SHT31;55787;52.678;13.314;2023-02-27T12:28:59;6.68;56.17
68804;SHT31;55787;52.678;13.314;2023-02-27T12:31:39;6.61;56.44
68804;SHT31;55787;52.678;13.314;2023-02-27T12:34:24;6.65;56.38
68804;SHT31;55787;52.678;13.314;2023-02-27T12:37:30;6.97;56.69
68804;SHT31;55787;52.678;13.314;2023-02-27T12:40:00;6.96;53.81
68804;SHT31;55787;52.678;13.314;2023-02-27T12:45:51;6.75;56.41
68804;SHT31;55787;52.678;13.314;2023-02-27T12:53:37;6.09;56.48
68804;SHT31;55787;52.678;13.314;2023-02-27T12:56:14;5.96;55.47
68804;SHT31;55787;52.678;13.314;2023-02-27T12:59:46;5.89;54.69
68804;SHT31;55787;52.678;13.314;2023-02-27T13:01:58;5.74;56.53
68804;SHT31;55787;52.678;13.314;2023-02-27T13:04:45;5.74;56.01
68804;SHT31;55787;52.678;13.314;2023-02-27T13:07:26;5.87;56.50
68804;SHT31;55787;52.678;13.314;2023-02-27T13:09:57;5.94;57.06
68804;SHT31;55787;52.678;13.314;2023-02-27T13:12:40;6.02;57.22
68804;SHT31;55787;52.678;13.314;2023-02-27T13:15:22;6.02;54.64
68804;SHT31;55787;52.678;13.314;2023-02-27T13:17:56;6.06;57.25
68804;SHT31;55787;52.678;13.314;2023-02-27T13:20:32;6.14;56.95
68804;SHT31;55787;52.678;13.314;2023-02-27T13:23:17;6.24;57.47
68804;SHT31;55787;52.678;13.314;2023-02-27T13:25:49;6.28;56.50
68804;SHT31;55787;52.678;13.314;2023-02-27T13:28:25;6.20;53.85
68804;SHT31;55787;52.678;13.314;2023-02-27T13:34:15;6.04;55.47
68804;SHT31;55787;52.678;13.314;2023-02-27T13:36:46;6.16;55.79
68804;SHT31;55787;52.678;13.314;2023-02-27T13:44:57;6.24;55.47
68804;SHT31;55787;52.678;13.314;2023-02-27T13:50:02;8.42;50.88
68804;SHT31;55787;52.678;13.314;2023-02-27T13:52:32;8.88;48.52
68804;SHT31;55787;52.678;13.314;2023-02-27T13:54:59;8.61;46.36
68804;SHT31;55787;52.678;13.314;2023-02-27T13:57:37;8.03;50.18
68804;SHT31;55787;52.678;13.314;2023-02-27T14:00:44;7.40;50.83
68804;SHT31;55787;52.678;13.314;2023-02-27T14:03:24;6.86;51.54
68804;SHT31;55787;52.678;13.314;2023-02-27T14:05:54;6.52;52.91
68804;SHT31;55787;52.678;13.314;2023-02-27T14:09:04;6.34;53.94
68804;SHT31;55787;52.678;13.314;2023-02-27T14:11:26;6.09;55.16
68804;SHT31;55787;52.678;13.314;2023-02-27T14:25:09;5.53;58.00
68804;SHT31;55787;52.678;13.314;2023-02-27T14:27:26;5.31;56.76
68804;SHT31;55787;52.678;13.314;2023-02-27T14:29:56;5.31;58.34
68804;SHT31;55787;52.678;13.314;2023-02-27T14:32:30;5.35;58.23
68804;SHT31;55787;52.678;13.314;2023-02-27T14:34:57;5.48;57.48
68804;SHT31;55787;52.678;13.314;2023-02-27T14:37:26;5.43;58.46
68804;SHT31;55787;52.678;13.314;2023-02-27T14:39:54;5.49;58.56
68804;SHT31;55787;52.678;13.314;2023-02-27T14:45:28;5.42;58.77
68804;SHT31;55787;52.678;13.314;2023-02-27T14:47:56;5.27;60.17
68804;SHT31;55787;52.678;13.314;2023-02-27T14:50:34;5.20;60.19
68804;SHT31;55787;52.678;13.314;2023-02-27T14:53:04;5.18;58.88
68804;SHT31;55787;52.678;13.314;2023-02-27T14:55:33;5.56;58.81
68804;SHT31;55787;52.678;13.314;2023-02-27T15:00:36;5.59;58.10
68804;SHT31;55787;52.678;13.314;2023-02-27T15:05:37;5.38;59.33
68804;SHT31;55787;52.678;13.314;2023-02-27T15:08:04;5.34;58.52
68804;SHT31;55787;52.678;13.314;2023-02-27T15:10:30;5.20;58.84
68804;SHT31;55787;52.678;13.314;2023-02-27T15:12:59;5.10;59.59
68804;SHT31;55787;52.678;13.314;2023-02-27T15:15:27;4.98;60.31
68804;SHT31;55787;52.678;13.314;2023-02-27T15:17:54;4.87;60.71
68804;SHT31;55787;52.678;13.314;2023-02-27T15:22:49;4.71;60.51
68804;SHT31;55787;52.678;13.314;2023-02-27T15:25:30;4.57;61.39
68804;SHT31;55787;52.678;13.314;2023-02-27T15:28:01;4.52;61.48
68804;SHT31;55787;52.678;13.314;2023-02-27T15:30:28;4.49;61.77
68804;SHT31;55787;52.678;13.314;2023-02-27T15:32:55;4.36;63.55
68804;SHT31;55787;52.678;13.314;2023-02-27T15:35:27;4.32;63.35
68804;SHT31;55787;52.678;13.314;2023-02-27T15:37:57;4.19;64.57
68804;SHT31;55787;52.678;13.314;2023-02-27T15:40:26;4.05;64.79
68804;SHT31;55787;52.678;13.314;2023-02-27T15:42:54;3.92;65.08
68804;SHT31;55787;52.678;13.314;2023-02-27T15:45:32;3.81;65.59
68804;SHT31;55787;52.678;13.314;2023-02-27T15:47:59;3.70;67.07
68804;SHT31;55787;52.678;13.314;2023-02-27T15:50:32;3.66;69.04
68804;SHT31;55787;52.678;13.314;2023-02-27T15:53:04;3.64;67.50
68804;SHT31;55787;52.678;13.314;2023-02-27T15:55:37;3.63;68.88
68804;SHT31;55787;52.678;13.314;2023-02-27T15:58:24;3.63;68.87
68804;SHT31;55787;52.678;13.314;2023-02-27T16:01:10;3.60;67.28
68804;SHT31;55787;52.678;13.314;2023-02-27T16:03:44;3.60;68.77
68804;SHT31;55787;52.678;13.314;2023-02-27T16:06:16;3.57;68.56
68804;SHT31;55787;52.678;13.314;2023-02-27T16:08:47;3.54;69.13
68804;SHT31;55787;52.678;13.314;2023-02-27T16:11:21;3.46;68.73
68804;SHT31;55787;52.678;13.314;2023-02-27T16:13:50;3.39;68.91
68804;SHT31;55787;52.678;13.314;2023-02-27T16:18:49;3.37;71.55
68804;SHT31;55787;52.678;13.314;2023-02-27T16:21:18;3.33;70.86
68804;SHT31;55787;52.678;13.314;2023-02-27T16:23:46;3.26;68.93
68804;SHT31;55787;52.678;13.314;2023-02-27T16:26:28;3.23;69.42
68804;SHT31;55787;52.678;13.314;2023-02-27T16:29:17;3.10;68.05
68804;SHT31;55787;52.678;13.314;2023-02-27T16:31:47;3.06;68.62
68804;SHT31;55787;52.678;13.314;2023-02-27T16:34:27;2.96;70.53
68804;SHT31;55787;52.678;13.314;2023-02-27T16:37:21;2.79;71.26
68804;SHT31;55787;52.678;13.314;2023-02-27T16:39:49;2.71;70.97
68804;SHT31;55787;52.678;13.314;2023-02-27T16:42:17;2.54;73.06
68804;SHT31;55787;52.678;13.314;2023-02-27T16:44:44;2.45;73.34
68804;SHT31;55787;52.678;13.314;2023-02-27T16:47:11;2.34;72.16
68804;SHT31;55787;52.678;13.314;2023-02-27T16:49:38;2.31;72.83
68804;SHT31;55787;52.678;13.314;2023-02-27T16:52:08;2.27;73.60
68804;SHT31;55787;52.678;13.314;2023-02-27T16:54:35;2.19;73.98
68804;SHT31;55787;52.678;13.314;2023-02-27T16:57:03;2.16;73.65
68804;SHT31;55787;52.678;13.314;2023-02-27T16:59:34;2.13;75.23
68804;SHT31;55787;52.678;13.314;2023-02-27T17:02:05;2.07;76.40
68804;SHT31;55787;52.678;13.314;2023-02-27T17:04:32;1.98;76.78
68804;SHT31;55787;52.678;13.314;2023-02-27T17:07:00;1.92;76.71
68804;SHT31;55787;52.678;13.314;2023-02-27T17:09:27;1.87;76.38
68804;SHT31;55787;52.678;13.314;2023-02-27T17:11:55;1.80;76.64
68804;SHT31;55787;52.678;13.314;2023-02-27T17:14:23;1.72;76.62
68804;SHT31;55787;52.678;13.314;2023-02-27T17:16:49;1.68;76.95
68804;SHT31;55787;52.678;13.314;2023-02-27T17:19:16;1.61;76.46
68804;SHT31;55787;52.678;13.314;2023-02-27T17:21:43;1.62;76.50
68804;SHT31;55787;52.678;13.314;2023-02-27T17:24:09;1.45;77.29
68804;SHT31;55787;52.678;13.314;2023-02-27T17:26:36;1.42;76.92
68804;SHT31;55787;52.678;13.314;2023-02-27T17:29:03;1.28;77.99
68804;SHT31;55787;52.678;13.314;2023-02-27T17:31:30;1.17;79.06
68804;SHT31;55787;52.678;13.314;2023-02-27T17:33:57;1.03;79.18
68804;SHT31;55787;52.678;13.314;2023-02-27T17:36:24;0.90;79.58
68804;SHT31;55787;52.678;13.314;2023-02-27T17:38:55;0.75;79.20
68804;SHT31;55787;52.678;13.314;2023-02-27T17:41:23;0.59;79.19
68804;SHT31;55787;52.678;13.314;2023-02-27T17:43:51;0.48;79.38
68804;SHT31;55787;52.678;13.314;2023-02-27T17:46:18;0.35;79.63
68804;SHT31;55787;52.678;13.314;2023-02-27T17:48:45;0.26;80.18
68804;SHT31;55787;52.678;13.314;2023-02-27T17:51:13;0.14;80.64
68804;SHT31;55787;52.678;13.314;2023-02-27T17:53:41;0.09;81.03
68804;SHT31;55787;52.678;13.314;2023-02-27T17:56:08;0.05;81.47
68804;SHT31;55787;52.678;13.314;2023-02-27T17:58:35;0.04;82.38
68804;SHT31;55787;52.678;13.314;2023-02-27T18:01:07;0.05;82.38
68804;SHT31;55787;52.678;13.314;2023-02-27T18:03:35;0.05;81.81
68804;SHT31;55787;52.678;13.314;2023-02-27T18:06:02;0.02;81.81
68804;SHT31;55787;52.678;13.314;2023-02-27T18:08:29;-0.02;81.85
68804;SHT31;55787;52.678;13.314;2023-02-27T18:10:57;-0.03;81.96
68804;SHT31;55787;52.678;13.314;2023-02-27T18:13:24;-0.12;82.03
68804;SHT31;55787;52.678;13.314;2023-02-27T18:15:53;-0.17;82.13